Terminal Aerodrome Forecast
Issued by NWS Atlanta, GA

Home | Current Version | Previous Version | Text Only | Print | Product List | Glossary On
Versions: 1 2 3 4 5 6 7 8 9 10 11 12 13 14 15 16 17 18 19 20 21 22 23 24 25 26 27 28 29 30 31 32 33 34 35 36 37 38
000
FTUS42 KFFC 250100 AAA
TAFATL
TAF AMD
KATL 250154Z 2502/2606 24006KT P6SM FEW040 BKN080
     FM250800 29004KT 4SM BR BKN006
     FM251400 28007KT P6SM SCT020
     FM251600 30007KT P6SM SCT040
     FM260000 29005KT P6SM SKC=

USA.gov is the U.S. government's official web portal to all federal, state and local government web resources and services.